sensor_id;sensor_type;location;lat;lon;timestamp;pressure;altitude;pressure_sealevel;temperature;humidity
1652;BME280;823;49.028;8.454;2023-04-16T00:01:32;100503.53;;;12.70;65.34
1652;BME280;823;49.028;8.454;2023-04-16T00:06:32;100506.78;;;12.53;66.28
1652;BME280;823;49.028;8.454;2023-04-16T00:11:33;100498.03;;;12.55;65.00
1652;BME280;823;49.028;8.454;2023-04-16T00:16:33;100497.88;;;12.60;65.35
1652;BME280;823;49.028;8.454;2023-04-16T00:21:33;100501.16;;;12.64;65.15
1652;BME280;823;49.028;8.454;2023-04-16T00:26:34;100504.50;;;12.67;65.29
1652;BME280;823;49.028;8.454;2023-04-16T00:31:35;100500.41;;;12.62;65.32
1652;BME280;823;49.028;8.454;2023-04-16T00:36:35;100497.59;;;12.66;65.04
1652;BME280;823;49.028;8.454;2023-04-16T00:41:37;100511.00;;;12.77;64.95
1652;BME280;823;49.028;8.454;2023-04-16T00:46:37;100511.72;;;12.81;64.71
1652;BME280;823;49.028;8.454;2023-04-16T00:51:38;100515.16;;;12.82;64.93
1652;BME280;823;49.028;8.454;2023-04-16T00:56:38;100511.66;;;12.83;64.86
1652;BME280;823;49.028;8.454;2023-04-16T01:01:38;100507.38;;;12.82;64.67
1652;BME280;823;49.028;8.454;2023-04-16T01:06:39;100511.78;;;12.80;64.46
1652;BME280;823;49.028;8.454;2023-04-16T01:11:40;100506.59;;;12.80;64.48
1652;BME280;823;49.028;8.454;2023-04-16T01:16:40;100512.00;;;12.73;64.72
1652;BME280;823;49.028;8.454;2023-04-16T01:21:40;100516.44;;;12.71;64.85
1652;BME280;823;49.028;8.454;2023-04-16T01:26:40;100520.06;;;12.67;65.03
1652;BME280;823;49.028;8.454;2023-04-16T01:31:41;100514.81;;;12.69;64.94
1652;BME280;823;49.028;8.454;2023-04-16T01:36:41;100526.97;;;12.67;64.98
1652;BME280;823;49.028;8.454;2023-04-16T01:41:42;100530.56;;;12.64;65.15
1652;BME280;823;49.028;8.454;2023-04-16T01:46:43;100519.16;;;12.46;65.55
1652;BME280;823;49.028;8.454;2023-04-16T01:51:44;100525.94;;;12.49;65.42
1652;BME280;823;49.028;8.454;2023-04-16T01:56:44;100518.84;;;12.54;65.57
1652;BME280;823;49.028;8.454;2023-04-16T02:01:44;100529.09;;;12.57;65.39
1652;BME280;823;49.028;8.454;2023-04-16T02:06:45;100523.91;;;12.57;65.26
1652;BME280;823;49.028;8.454;2023-04-16T02:11:45;100541.03;;;12.61;65.25
1652;BME280;823;49.028;8.454;2023-04-16T02:16:46;100535.03;;;12.60;65.50
1652;BME280;823;49.028;8.454;2023-04-16T02:21:47;100534.97;;;12.62;65.41
1652;BME280;823;49.028;8.454;2023-04-16T02:26:47;100537.50;;;12.64;65.27
1652;BME280;823;49.028;8.454;2023-04-16T02:31:48;100541.84;;;12.63;64.99
1652;BME280;823;49.028;8.454;2023-04-16T02:36:48;100541.97;;;12.60;65.22
1652;BME280;823;49.028;8.454;2023-04-16T02:41:48;100536.72;;;12.62;65.41
1652;BME280;823;49.028;8.454;2023-04-16T02:46:49;100536.72;;;12.62;65.51
1652;BME280;823;49.028;8.454;2023-04-16T02:51:49;100537.63;;;12.60;65.64
1652;BME280;823;49.028;8.454;2023-04-16T02:56:49;100537.47;;;12.41;66.25
1652;BME280;823;49.028;8.454;2023-04-16T03:01:50;100542.44;;;12.48;66.02
1652;BME280;823;49.028;8.454;2023-04-16T03:06:50;100547.72;;;12.44;66.05
1652;BME280;823;49.028;8.454;2023-04-16T03:11:50;100540.50;;;12.53;65.89
1652;BME280;823;49.028;8.454;2023-04-16T03:16:51;100550.81;;;12.54;65.80
1652;BME280;823;49.028;8.454;2023-04-16T03:21:51;100557.09;;;12.49;66.17
1652;BME280;823;49.028;8.454;2023-04-16T03:26:51;100550.94;;;12.51;66.14
1652;BME280;823;49.028;8.454;2023-04-16T03:31:52;100552.91;;;12.44;66.30
1652;BME280;823;49.028;8.454;2023-04-16T03:36:52;100560.47;;;12.51;65.76
1652;BME280;823;49.028;8.454;2023-04-16T03:41:52;100562.25;;;12.50;66.02
1652;BME280;823;49.028;8.454;2023-04-16T03:46:53;100563.84;;;12.53;65.94
1652;BME280;823;49.028;8.454;2023-04-16T03:51:53;100563.78;;;12.54;66.02
1652;BME280;823;49.028;8.454;2023-04-16T03:56:53;100567.25;;;12.55;65.95
1652;BME280;823;49.028;8.454;2023-04-16T04:01:54;100575.16;;;12.52;66.18
1652;BME280;823;49.028;8.454;2023-04-16T04:06:54;100566.94;;;12.63;65.78
1652;BME280;823;49.028;8.454;2023-04-16T04:11:54;100566.91;;;12.64;65.79
1652;BME280;823;49.028;8.454;2023-04-16T04:16:55;100568.56;;;12.65;65.85
1652;BME280;823;49.028;8.454;2023-04-16T04:21:55;100571.16;;;12.65;65.59
1652;BME280;823;49.028;8.454;2023-04-16T04:26:55;100582.22;;;12.70;65.46
1652;BME280;823;49.028;8.454;2023-04-16T04:31:56;100584.25;;;12.62;65.42
1652;BME280;823;49.028;8.454;2023-04-16T04:36:58;100598.59;;;12.72;65.34
1652;BME280;823;49.028;8.454;2023-04-16T04:41:58;100598.75;;;12.68;65.50
1652;BME280;823;49.028;8.454;2023-04-16T04:46:58;100605.56;;;12.70;65.17
1652;BME280;823;49.028;8.454;2023-04-16T04:51:59;100605.63;;;12.69;65.03
1652;BME280;823;49.028;8.454;2023-04-16T04:57:00;100609.81;;;12.73;64.91
1652;BME280;823;49.028;8.454;2023-04-16T05:02:01;100609.75;;;12.74;64.91
1652;BME280;823;49.028;8.454;2023-04-16T05:07:02;100626.34;;;12.70;65.25
1652;BME280;823;49.028;8.454;2023-04-16T05:12:02;100623.97;;;12.64;65.13
1652;BME280;823;49.028;8.454;2023-04-16T05:17:03;100630.91;;;12.64;65.06
1652;BME280;823;49.028;8.454;2023-04-16T05:22:03;100631.16;;;12.57;65.23
1652;BME280;823;49.028;8.454;2023-04-16T05:27:04;100638.13;;;12.55;65.20
1652;BME280;823;49.028;8.454;2023-04-16T05:32:04;100641.75;;;12.51;64.84
1652;BME280;823;49.028;8.454;2023-04-16T05:37:04;100642.81;;;12.46;65.23
1652;BME280;823;49.028;8.454;2023-04-16T05:42:05;100646.88;;;12.53;64.71
1652;BME280;823;49.028;8.454;2023-04-16T05:47:05;100659.84;;;12.53;64.80
1652;BME280;823;49.028;8.454;2023-04-16T05:52:08;100659.63;;;12.59;64.75
1652;BME280;823;49.028;8.454;2023-04-16T05:57:08;100670.84;;;12.59;64.93
1652;BME280;823;49.028;8.454;2023-04-16T06:02:09;100665.38;;;12.67;64.77
1652;BME280;823;49.028;8.454;2023-04-16T06:07:09;100670.56;;;12.67;64.82
1652;BME280;823;49.028;8.454;2023-04-16T06:12:10;100672.09;;;12.73;64.73
1652;BME280;823;49.028;8.454;2023-04-16T06:17:10;100675.38;;;12.78;64.71
1652;BME280;823;49.028;8.454;2023-04-16T06:22:11;100672.59;;;12.83;64.63
1652;BME280;823;49.028;8.454;2023-04-16T06:27:11;100678.28;;;12.92;64.78
1652;BME280;823;49.028;8.454;2023-04-16T06:32:11;100682.50;;;12.95;64.22
1652;BME280;823;49.028;8.454;2023-04-16T06:37:12;100687.44;;;13.01;64.41
1652;BME280;823;49.028;8.454;2023-04-16T06:42:12;100683.75;;;13.08;64.40
1652;BME280;823;49.028;8.454;2023-04-16T06:47:13;100684.75;;;13.04;64.40
1652;BME280;823;49.028;8.454;2023-04-16T06:52:13;100695.72;;;13.11;63.99
1652;BME280;823;49.028;8.454;2023-04-16T06:57:13;100702.34;;;13.20;64.16
1652;BME280;823;49.028;8.454;2023-04-16T07:02:14;100700.28;;;13.28;63.78
1652;BME280;823;49.028;8.454;2023-04-16T07:07:14;100711.63;;;13.25;63.45
1652;BME280;823;49.028;8.454;2023-04-16T07:12:14;100710.63;;;13.29;63.19
1652;BME280;823;49.028;8.454;2023-04-16T07:17:15;100701.84;;;13.32;63.44
1652;BME280;823;49.028;8.454;2023-04-16T07:22:15;100713.84;;;13.36;64.07
1652;BME280;823;49.028;8.454;2023-04-16T07:27:16;100711.91;;;13.41;63.35
1652;BME280;823;49.028;8.454;2023-04-16T07:32:16;100722.28;;;13.41;63.19
1652;BME280;823;49.028;8.454;2023-04-16T07:37:16;100720.13;;;13.29;63.60
1652;BME280;823;49.028;8.454;2023-04-16T07:42:17;100713.56;;;13.20;62.95
1652;BME280;823;49.028;8.454;2023-04-16T07:47:17;100719.94;;;13.35;62.80
1652;BME280;823;49.028;8.454;2023-04-16T07:52:18;100732.53;;;13.46;62.98
1652;BME280;823;49.028;8.454;2023-04-16T07:57:18;100727.56;;;13.40;63.06
1652;BME280;823;49.028;8.454;2023-04-16T08:02:19;100731.28;;;13.33;62.91
1652;BME280;823;49.028;8.454;2023-04-16T08:07:19;100741.22;;;13.45;62.80
1652;BME280;823;49.028;8.454;2023-04-16T08:12:20;100746.34;;;13.47;62.76
1652;BME280;823;49.028;8.454;2023-04-16T08:17:21;100755.03;;;13.45;62.41
1652;BME280;823;49.028;8.454;2023-04-16T08:22:21;100751.41;;;13.50;62.42
1652;BME280;823;49.028;8.454;2023-04-16T08:27:22;100766.41;;;13.65;61.94
1652;BME280;823;49.028;8.454;2023-04-16T08:32:23;100769.25;;;13.59;61.60
1652;BME280;823;49.028;8.454;2023-04-16T08:37:24;100777.78;;;13.62;61.45
1652;BME280;823;49.028;8.454;2023-04-16T08:42:31;100776.69;;;13.68;60.93
1652;BME280;823;49.028;8.454;2023-04-16T08:47:34;100778.75;;;13.60;60.10
1652;BME280;823;49.028;8.454;2023-04-16T08:52:37;100784.59;;;13.65;60.02
1652;BME280;823;49.028;8.454;2023-04-16T08:57:47;100787.31;;;13.62;59.73
1652;BME280;823;49.028;8.454;2023-04-16T09:02:50;100782.25;;;13.59;60.45
1652;BME280;823;49.028;8.454;2023-04-16T09:07:51;100785.53;;;13.64;59.89
1652;BME280;823;49.028;8.454;2023-04-16T09:12:55;100793.53;;;13.58;59.83
1652;BME280;823;49.028;8.454;2023-04-16T09:17:56;100799.75;;;13.54;59.61
1652;BME280;823;49.028;8.454;2023-04-16T09:22:56;100798.13;;;13.51;59.64
1652;BME280;823;49.028;8.454;2023-04-16T09:27:57;100795.13;;;13.62;59.55
1652;BME280;823;49.028;8.454;2023-04-16T09:33:17;100797.22;;;13.74;59.44
1652;BME280;823;49.028;8.454;2023-04-16T09:38:21;100804.13;;;13.75;59.41
1652;BME280;823;49.028;8.454;2023-04-16T09:43:21;100809.34;;;13.75;60.02
1652;BME280;823;49.028;8.454;2023-04-16T09:48:29;100802.38;;;13.76;59.24
1652;BME280;823;49.028;8.454;2023-04-16T09:53:30;100810.78;;;13.60;59.81
1652;BME280;823;49.028;8.454;2023-04-16T09:58:31;100816.44;;;13.48;59.16
1652;BME280;823;49.028;8.454;2023-04-16T10:03:36;100817.94;;;13.54;59.85
1652;BME280;823;49.028;8.454;2023-04-16T10:08:42;100818.91;;;13.51;60.25
1652;BME280;823;49.028;8.454;2023-04-16T10:13:42;100827.84;;;13.44;60.94
1652;BME280;823;49.028;8.454;2023-04-16T10:18:44;100821.69;;;13.47;61.57
1652;BME280;823;49.028;8.454;2023-04-16T10:23:44;100836.56;;;13.65;61.14
1652;BME280;823;49.028;8.454;2023-04-16T10:28:45;100839.63;;;13.76;61.46
1652;BME280;823;49.028;8.454;2023-04-16T10:33:46;100846.94;;;13.89;61.33
1652;BME280;823;49.028;8.454;2023-04-16T10:38:49;100849.72;;;13.84;60.27
1652;BME280;823;49.028;8.454;2023-04-16T10:43:50;100848.53;;;13.93;60.25
1652;BME280;823;49.028;8.454;2023-04-16T10:48:55;100848.63;;;13.90;59.48
1652;BME280;823;49.028;8.454;2023-04-16T10:59:20;100857.81;;;13.76;60.19
1652;BME280;823;49.028;8.454;2023-04-16T11:14:50;100851.38;;;13.41;61.79
1652;BME280;823;49.028;8.454;2023-04-16T11:19:50;100861.34;;;13.28;62.81
1652;BME280;823;49.028;8.454;2023-04-16T11:24:54;100854.63;;;13.22;63.21
1652;BME280;823;49.028;8.454;2023-04-16T11:30:06;100862.84;;;13.10;64.02
1652;BME280;823;49.028;8.454;2023-04-16T11:35:14;100861.59;;;13.20;64.48
1652;BME280;823;49.028;8.454;2023-04-16T11:40:14;100863.38;;;13.20;64.47
1652;BME280;823;49.028;8.454;2023-04-16T11:45:15;100859.25;;;13.14;65.31
1652;BME280;823;49.028;8.454;2023-04-16T11:50:21;100863.38;;;13.20;65.27
1652;BME280;823;49.028;8.454;2023-04-16T11:55:22;100864.00;;;13.26;65.01
1652;BME280;823;49.028;8.454;2023-04-16T12:00:23;100860.31;;;13.08;66.03
1652;BME280;823;49.028;8.454;2023-04-16T12:05:34;100859.00;;;13.20;65.44
1652;BME280;823;49.028;8.454;2023-04-16T12:10:53;100862.91;;;13.32;65.20
1652;BME280;823;49.028;8.454;2023-04-16T12:15:55;100863.66;;;13.36;65.72
1652;BME280;823;49.028;8.454;2023-04-16T12:20:56;100869.06;;;13.29;65.74
1652;BME280;823;49.028;8.454;2023-04-16T12:25:56;100861.50;;;13.23;65.90
1652;BME280;823;49.028;8.454;2023-04-16T12:31:02;100865.97;;;13.20;66.31
1652;BME280;823;49.028;8.454;2023-04-16T12:36:18;100867.13;;;13.11;66.59
1652;BME280;823;49.028;8.454;2023-04-16T12:41:19;100867.03;;;13.14;66.62
1652;BME280;823;49.028;8.454;2023-04-16T12:46:19;100865.44;;;13.10;66.66
1652;BME280;823;49.028;8.454;2023-04-16T12:51:19;100868.22;;;13.29;65.99
1652;BME280;823;49.028;8.454;2023-04-16T12:56:20;100872.50;;;13.30;66.11
1652;BME280;823;49.028;8.454;2023-04-16T13:01:21;100870.03;;;13.27;66.31
1652;BME280;823;49.028;8.454;2023-04-16T13:06:22;100879.78;;;13.20;66.59
1652;BME280;823;49.028;8.454;2023-04-16T13:11:22;100864.72;;;13.30;66.02
1652;BME280;823;49.028;8.454;2023-04-16T13:16:23;100875.91;;;13.32;66.22
1652;BME280;823;49.028;8.454;2023-04-16T13:21:23;100868.28;;;13.27;66.37
1652;BME280;823;49.028;8.454;2023-04-16T13:26:24;100865.66;;;13.27;66.43
1652;BME280;823;49.028;8.454;2023-04-16T13:31:25;100867.88;;;13.15;66.96
1652;BME280;823;49.028;8.454;2023-04-16T13:36:25;100864.94;;;13.24;66.81
1652;BME280;823;49.028;8.454;2023-04-16T13:41:26;100869.91;;;13.30;66.65
1652;BME280;823;49.028;8.454;2023-04-16T13:46:26;100869.97;;;13.28;66.65
1652;BME280;823;49.028;8.454;2023-04-16T13:51:28;100873.25;;;13.34;66.78
1652;BME280;823;49.028;8.454;2023-04-16T13:56:28;100869.50;;;13.42;66.55
1652;BME280;823;49.028;8.454;2023-04-16T14:01:28;100868.66;;;13.42;66.75
1652;BME280;823;49.028;8.454;2023-04-16T14:06:29;100867.69;;;13.44;66.59
1652;BME280;823;49.028;8.454;2023-04-16T14:11:30;100864.41;;;13.39;66.96
1652;BME280;823;49.028;8.454;2023-04-16T14:16:30;100859.22;;;13.39;66.91
1652;BME280;823;49.028;8.454;2023-04-16T14:21:30;100866.44;;;13.55;66.77
1652;BME280;823;49.028;8.454;2023-04-16T14:26:31;100863.53;;;13.40;66.95
1652;BME280;823;49.028;8.454;2023-04-16T14:31:31;100869.03;;;13.55;66.62
1652;BME280;823;49.028;8.454;2023-04-16T14:36:32;100872.06;;;13.66;66.52
1652;BME280;823;49.028;8.454;2023-04-16T14:41:32;100864.13;;;13.71;66.71
1652;BME280;823;49.028;8.454;2023-04-16T14:46:33;100864.88;;;13.73;66.55
1652;BME280;823;49.028;8.454;2023-04-16T14:51:33;100864.19;;;13.68;66.49
1652;BME280;823;49.028;8.454;2023-04-16T14:56:33;100873.72;;;13.69;66.43
1652;BME280;823;49.028;8.454;2023-04-16T15:01:34;100872.81;;;13.70;66.34
1652;BME280;823;49.028;8.454;2023-04-16T15:06:35;100877.94;;;13.71;66.43
1652;BME280;823;49.028;8.454;2023-04-16T15:11:35;100879.66;;;13.72;66.19
1652;BME280;823;49.028;8.454;2023-04-16T15:16:35;100875.28;;;13.73;66.25
1652;BME280;823;49.028;8.454;2023-04-16T15:21:36;100870.16;;;13.71;66.18
1652;BME280;823;49.028;8.454;2023-04-16T15:26:36;100876.19;;;13.72;66.04
1652;BME280;823;49.028;8.454;2023-04-16T15:31:37;100874.50;;;13.71;66.11
1652;BME280;823;49.028;8.454;2023-04-16T15:36:37;100873.75;;;13.67;66.43
1652;BME280;823;49.028;8.454;2023-04-16T15:41:37;100884.84;;;13.72;66.10
1652;BME280;823;49.028;8.454;2023-04-16T15:46:38;100889.25;;;13.70;65.81
1652;BME280;823;49.028;8.454;2023-04-16T15:51:39;100896.13;;;13.71;66.14
1652;BME280;823;49.028;8.454;2023-04-16T15:56:39;100896.19;;;13.70;65.90
1652;BME280;823;49.028;8.454;2023-04-16T16:01:39;100893.09;;;13.60;66.70
1652;BME280;823;49.028;8.454;2023-04-16T16:06:40;100880.81;;;13.63;66.47
1652;BME280;823;49.028;8.454;2023-04-16T16:11:40;100889.69;;;13.58;66.98
1652;BME280;823;49.028;8.454;2023-04-16T16:16:41;100890.50;;;13.60;66.69
1652;BME280;823;49.028;8.454;2023-04-16T16:21:41;100888.53;;;13.67;66.47
1652;BME280;823;49.028;8.454;2023-04-16T16:26:41;100888.81;;;13.59;66.86
1652;BME280;823;49.028;8.454;2023-04-16T16:31:42;100896.25;;;13.68;66.32
1652;BME280;823;49.028;8.454;2023-04-16T16:36:45;100890.94;;;13.71;66.70
1652;BME280;823;49.028;8.454;2023-04-16T16:41:45;100897.41;;;13.61;66.76
1652;BME280;823;49.028;8.454;2023-04-16T16:46:46;100895.53;;;13.65;66.58
1652;BME280;823;49.028;8.454;2023-04-16T16:51:47;100898.88;;;13.68;66.39
1652;BME280;823;49.028;8.454;2023-04-16T16:56:47;100899.63;;;13.70;66.44
1652;BME280;823;49.028;8.454;2023-04-16T17:01:47;100892.66;;;13.72;66.47
1652;BME280;823;49.028;8.454;2023-04-16T17:06:48;100896.91;;;13.73;66.25
1652;BME280;823;49.028;8.454;2023-04-16T17:11:48;100895.41;;;13.68;66.49
1652;BME280;823;49.028;8.454;2023-04-16T17:16:48;100903.09;;;13.71;66.43
1652;BME280;823;49.028;8.454;2023-04-16T17:21:49;100907.56;;;13.67;66.37
1652;BME280;823;49.028;8.454;2023-04-16T17:26:49;100908.41;;;13.68;66.29
1652;BME280;823;49.028;8.454;2023-04-16T17:31:50;100908.56;;;13.63;66.50
1652;BME280;823;49.028;8.454;2023-04-16T17:36:50;100917.22;;;13.63;66.52
1652;BME280;823;49.028;8.454;2023-04-16T17:41:51;100922.47;;;13.62;66.36
1652;BME280;823;49.028;8.454;2023-04-16T17:46:53;100922.47;;;13.62;66.45
1652;BME280;823;49.028;8.454;2023-04-16T17:51:54;100936.47;;;13.58;66.47
1652;BME280;823;49.028;8.454;2023-04-16T17:56:54;100930.38;;;13.59;66.33
1652;BME280;823;49.028;8.454;2023-04-16T18:01:54;100933.09;;;13.56;66.28
1652;BME280;823;49.028;8.454;2023-04-16T18:06:55;100936.66;;;13.53;66.29
1652;BME280;823;49.028;8.454;2023-04-16T18:11:55;100946.22;;;13.53;66.58
1652;BME280;823;49.028;8.454;2023-04-16T18:16:56;100941.16;;;13.48;66.59
1652;BME280;823;49.028;8.454;2023-04-16T18:21:57;100936.84;;;13.49;66.26
1652;BME280;823;49.028;8.454;2023-04-16T18:27:01;100946.53;;;13.43;66.45
1652;BME280;823;49.028;8.454;2023-04-16T18:32:01;100956.19;;;13.40;66.73
1652;BME280;823;49.028;8.454;2023-04-16T18:37:01;100956.13;;;13.41;66.62
1652;BME280;823;49.028;8.454;2023-04-16T18:42:03;100951.84;;;13.40;66.73
1652;BME280;823;49.028;8.454;2023-04-16T18:47:04;100955.22;;;13.42;66.55
1652;BME280;823;49.028;8.454;2023-04-16T18:52:04;100950.84;;;13.44;66.54
1652;BME280;823;49.028;8.454;2023-04-16T18:57:05;100956.13;;;13.41;66.62
1652;BME280;823;49.028;8.454;2023-04-16T19:02:05;100966.44;;;13.44;66.62
1652;BME280;823;49.028;8.454;2023-04-16T19:07:06;100963.78;;;13.46;66.57
1652;BME280;823;49.028;8.454;2023-04-16T19:12:06;100966.31;;;13.48;66.59
1652;BME280;823;49.028;8.454;2023-04-16T19:17:06;100968.91;;;13.48;66.56
1652;BME280;823;49.028;8.454;2023-04-16T19:22:07;100976.84;;;13.43;66.72
1652;BME280;823;49.028;8.454;2023-04-16T19:27:07;100978.50;;;13.45;66.32
1652;BME280;823;49.028;8.454;2023-04-16T19:32:07;100978.41;;;13.49;66.62
1652;BME280;823;49.028;8.454;2023-04-16T19:37:08;100980.09;;;13.50;66.32
1652;BME280;823;49.028;8.454;2023-04-16T19:42:08;100986.16;;;13.50;66.33
1652;BME280;823;49.028;8.454;2023-04-16T19:47:08;100986.16;;;13.50;66.33
1652;BME280;823;49.028;8.454;2023-04-16T19:52:08;100987.88;;;13.50;66.39
1652;BME280;823;49.028;8.454;2023-04-16T19:57:09;100994.03;;;13.47;66.29
1652;BME280;823;49.028;8.454;2023-04-16T20:02:09;100991.50;;;13.45;66.24
1652;BME280;823;49.028;8.454;2023-04-16T20:07:10;100984.63;;;13.44;66.80
1652;BME280;823;49.028;8.454;2023-04-16T20:12:10;100992.41;;;13.44;66.60
1652;BME280;823;49.028;8.454;2023-04-16T20:17:10;100995.84;;;13.45;66.72
1652;BME280;823;49.028;8.454;2023-04-16T20:22:11;100991.34;;;13.50;66.63
1652;BME280;823;49.028;8.454;2023-04-16T20:27:12;100986.47;;;13.41;66.88
1652;BME280;823;49.028;8.454;2023-04-16T20:32:13;100984.88;;;13.37;66.73
1652;BME280;823;49.028;8.454;2023-04-16T20:37:14;100984.88;;;13.37;66.79
1652;BME280;823;49.028;8.454;2023-04-16T20:42:15;100982.44;;;13.32;66.88
1652;BME280;823;49.028;8.454;2023-04-16T20:47:15;100984.88;;;13.37;66.85
1652;BME280;823;49.028;8.454;2023-04-16T20:52:16;100980.72;;;13.31;67.16
1652;BME280;823;49.028;8.454;2023-04-16T20:57:16;100978.72;;;13.39;66.78
1652;BME280;823;49.028;8.454;2023-04-16T21:02:16;100984.81;;;13.38;66.80
1652;BME280;823;49.028;8.454;2023-04-16T21:07:17;100978.00;;;13.34;66.73
1652;BME280;823;49.028;8.454;2023-04-16T21:12:17;100973.66;;;13.36;66.88
1652;BME280;823;49.028;8.454;2023-04-16T21:17:17;100970.13;;;13.37;66.57
1652;BME280;823;49.028;8.454;2023-04-16T21:22:18;100967.63;;;13.34;66.64
1652;BME280;823;49.028;8.454;2023-04-16T21:27:18;100970.38;;;13.29;66.54
1652;BME280;823;49.028;8.454;2023-04-16T21:32:18;100977.28;;;13.31;66.64
1652;BME280;823;49.028;8.454;2023-04-16T21:37:18;100974.63;;;13.32;66.62
1652;BME280;823;49.028;8.454;2023-04-16T21:42:19;100976.31;;;13.33;66.65
1652;BME280;823;49.028;8.454;2023-04-16T21:47:19;100975.31;;;13.37;66.43
1652;BME280;823;49.028;8.454;2023-04-16T21:52:20;100971.94;;;13.35;66.52
1652;BME280;823;49.028;8.454;2023-04-16T21:57:20;100970.28;;;13.33;66.66
1652;BME280;823;49.028;8.454;2023-04-16T22:02:20;100959.75;;;13.37;66.48
1652;BME280;823;49.028;8.454;2023-04-16T22:07:21;100964.94;;;13.37;66.68
1652;BME280;823;49.028;8.454;2023-04-16T22:12:21;100957.06;;;13.40;66.38
1652;BME280;823;49.028;8.454;2023-04-16T22:17:21;100963.88;;;13.43;66.32
1652;BME280;823;49.028;8.454;2023-04-16T22:22:22;100962.06;;;13.45;66.46
1652;BME280;823;49.028;8.454;2023-04-16T22:27:23;100964.69;;;13.45;66.51
1652;BME280;823;49.028;8.454;2023-04-16T22:32:23;100961.19;;;13.46;66.45
1652;BME280;823;49.028;8.454;2023-04-16T22:37:23;100963.78;;;13.46;66.44
1652;BME280;823;49.028;8.454;2023-04-16T22:42:23;100966.31;;;13.48;66.30
1652;BME280;823;49.028;8.454;2023-04-16T22:47:24;100962.75;;;13.50;66.27
1652;BME280;823;49.028;8.454;2023-04-16T22:52:24;100964.50;;;13.50;66.18
1652;BME280;823;49.028;8.454;2023-04-16T22:57:25;100955.81;;;13.51;66.25
1652;BME280;823;49.028;8.454;2023-04-16T23:02:25;100964.41;;;13.53;66.22
1652;BME280;823;49.028;8.454;2023-04-16T23:07:25;100958.34;;;13.52;66.15
1652;BME280;823;49.028;8.454;2023-04-16T23:12:26;100961.13;;;13.48;66.26
1652;BME280;823;49.028;8.454;2023-04-16T23:17:26;100956.75;;;13.48;66.23
1652;BME280;823;49.028;8.454;2023-04-16T23:22:26;100957.50;;;13.52;65.99
1652;BME280;823;49.028;8.454;2023-04-16T23:27:27;100956.81;;;13.47;66.17
1652;BME280;823;49.028;8.454;2023-04-16T23:32:27;100957.63;;;13.49;65.97
1652;BME280;823;49.028;8.454;2023-04-16T23:37:27;100961.25;;;13.44;65.97
1652;BME280;823;49.028;8.454;2023-04-16T23:42:28;100959.41;;;13.47;66.05
1652;BME280;823;49.028;8.454;2023-04-16T23:47:28;100955.03;;;13.49;65.93
1652;BME280;823;49.028;8.454;2023-04-16T23:52:28;100954.34;;;13.43;66.07
1652;BME280;823;49.028;8.454;2023-04-16T23:57:29;100950.84;;;13.44;65.80
